createdAt,value
2017-11-28T00:00:05.983Z,0
2017-11-28T00:01:18.548Z,0
2017-11-28T00:02:31.592Z,0
2017-11-28T00:03:44.600Z,0
2017-11-28T00:04:57.591Z,0
2017-11-28T00:06:10.142Z,0
2017-11-28T00:07:22.201Z,0
2017-11-28T00:08:35.149Z,0
2017-11-28T00:09:48.173Z,0
2017-11-28T00:11:01.175Z,0
2017-11-28T00:12:14.188Z,0
2017-11-28T00:13:26.894Z,0
2017-11-28T00:14:39.374Z,0
2017-11-28T00:15:52.395Z,0
2017-11-28T00:17:05.582Z,0
2017-11-28T00:18:18.579Z,0
2017-11-28T00:19:31.105Z,0
2017-11-28T00:20:44.082Z,0
2017-11-28T00:21:57.099Z,0
2017-11-28T00:23:10.117Z,0
2017-11-28T00:24:23.112Z,0
2017-11-28T00:25:36.079Z,0
2017-11-28T00:26:48.598Z,0
2017-11-28T00:28:01.134Z,0
2017-11-28T00:29:13.666Z,0
2017-11-28T00:30:26.216Z,0
2017-11-28T00:31:39.288Z,0
2017-11-28T00:32:52.333Z,0
2017-11-28T00:34:05.340Z,0
2017-11-28T00:35:18.379Z,0
2017-11-28T00:36:31.402Z,0
2017-11-28T00:37:44.519Z,0
2017-11-28T00:38:57.258Z,0
2017-11-28T00:40:09.822Z,0
2017-11-28T00:41:22.361Z,0
2017-11-28T00:42:34.403Z,0
2017-11-28T00:43:47.422Z,0
2017-11-28T00:45:00.405Z,0
2017-11-28T00:46:12.941Z,0
2017-11-28T00:47:25.938Z,0
2017-11-28T00:48:38.973Z,0
2017-11-28T00:49:51.541Z,0
2017-11-28T00:51:03.575Z,0
2017-11-28T00:52:16.543Z,0
2017-11-28T00:53:29.079Z,0
2017-11-28T00:54:42.117Z,0
2017-11-28T00:55:55.123Z,0
2017-11-28T00:57:08.212Z,0
2017-11-28T00:58:21.250Z,0
2017-11-28T00:59:34.268Z,0
2017-11-28T01:00:47.250Z,0
2017-11-28T01:02:00.218Z,0
2017-11-28T01:03:13.433Z,0
2017-11-28T01:04:26.458Z,0
2017-11-28T01:05:38.962Z,0
2017-11-28T01:06:51.474Z,0
2017-11-28T01:08:04.491Z,0
2017-11-28T01:09:17.522Z,0
2017-11-28T01:10:30.526Z,0
2017-11-28T01:11:43.534Z,0
2017-11-28T01:12:56.106Z,0
2017-11-28T01:14:08.632Z,0
2017-11-28T01:15:21.653Z,0
2017-11-28T01:16:34.602Z,0
2017-11-28T01:17:47.633Z,0
2017-11-28T01:19:00.654Z,0
2017-11-28T01:20:13.676Z,0
2017-11-28T01:21:26.662Z,0
2017-11-28T01:22:39.229Z,0
2017-11-28T01:23:52.220Z,0
2017-11-28T01:25:05.229Z,0
2017-11-28T01:26:18.229Z,0
2017-11-28T01:27:30.783Z,0
2017-11-28T01:28:43.786Z,0
2017-11-28T01:29:56.812Z,0
2017-11-28T01:31:09.782Z,0
2017-11-28T01:32:22.731Z,0
2017-11-28T01:33:35.752Z,0
2017-11-28T01:34:48.276Z,0
2017-11-28T01:36:01.272Z,0
2017-11-28T01:37:14.299Z,0
2017-11-28T01:38:27.288Z,0
2017-11-28T01:39:39.840Z,0
2017-11-28T01:40:52.836Z,0
2017-11-28T01:42:05.874Z,0
2017-11-28T01:43:18.903Z,0
2017-11-28T01:44:31.869Z,0
2017-11-28T01:45:44.835Z,0
2017-11-28T01:46:57.893Z,0
2017-11-28T01:48:10.916Z,0
2017-11-28T01:49:23.956Z,0
2017-11-28T01:50:37.204Z,0
2017-11-28T01:51:50.178Z,0
2017-11-28T01:53:02.763Z,0
2017-11-28T01:54:15.785Z,0
2017-11-28T01:55:28.333Z,0
2017-11-28T01:56:40.907Z,0
2017-11-28T01:57:53.713Z,0
2017-11-28T01:59:06.755Z,0
2017-11-28T02:00:19.778Z,0
2017-11-28T02:01:32.317Z,0
2017-11-28T02:02:45.308Z,0
2017-11-28T02:03:58.320Z,0
2017-11-28T02:05:11.327Z,0
2017-11-28T02:06:24.045Z,0
2017-11-28T02:07:36.600Z,0
2017-11-28T02:08:49.604Z,0
2017-11-28T02:10:02.597Z,0
2017-11-28T02:11:15.584Z,0
2017-11-28T02:12:28.597Z,0
2017-11-28T02:13:41.574Z,0
2017-11-28T02:14:54.580Z,0
2017-11-28T02:16:07.603Z,0
2017-11-28T02:17:20.598Z,0
2017-11-28T02:18:33.594Z,0
2017-11-28T02:19:46.108Z,0
2017-11-28T02:20:59.124Z,0
2017-11-28T02:22:12.113Z,0
2017-11-28T02:23:25.129Z,0
2017-11-28T02:24:38.371Z,0
2017-11-28T02:25:51.336Z,0
2017-11-28T02:27:04.335Z,0
2017-11-28T02:28:16.881Z,0
2017-11-28T02:29:29.877Z,0
2017-11-28T02:30:42.903Z,0
2017-11-28T02:31:55.594Z,0
2017-11-28T02:33:08.797Z,0
2017-11-28T02:34:21.854Z,0
2017-11-28T02:35:34.386Z,0
2017-11-28T02:36:47.385Z,0
2017-11-28T02:38:00.465Z,0
2017-11-28T02:39:12.525Z,0
2017-11-28T02:40:25.536Z,0
2017-11-28T02:41:38.533Z,0
2017-11-28T02:42:51.120Z,0
2017-11-28T02:44:03.671Z,0
2017-11-28T02:45:16.677Z,0
2017-11-28T02:46:29.685Z,0
2017-11-28T02:47:42.260Z,0
2017-11-28T02:48:55.283Z,0
2017-11-28T02:50:07.813Z,0
2017-11-28T02:51:20.862Z,0
2017-11-28T02:52:33.844Z,0
2017-11-28T02:53:46.351Z,0
2017-11-28T02:54:59.373Z,0
2017-11-28T02:56:12.371Z,0
2017-11-28T02:57:23.963Z,0
2017-11-28T02:58:36.458Z,0
2017-11-28T02:59:49.515Z,0
2017-11-28T03:01:02.542Z,0
2017-11-28T03:02:15.565Z,0
2017-11-28T03:03:28.549Z,0
2017-11-28T03:04:41.507Z,0
2017-11-28T03:05:54.024Z,0
2017-11-28T03:07:07.028Z,0
2017-11-28T03:08:20.041Z,0
2017-11-28T03:09:32.138Z,0
2017-11-28T03:10:44.681Z,0
2017-11-28T03:11:57.314Z,0
2017-11-28T03:13:10.354Z,0
2017-11-28T03:14:23.342Z,0
2017-11-28T03:15:36.392Z,0
2017-11-28T03:16:49.436Z,0
2017-11-28T03:18:02.430Z,0
2017-11-28T03:19:15.435Z,0
2017-11-28T03:20:27.956Z,0
2017-11-28T03:21:41.215Z,0
2017-11-28T03:22:53.769Z,0
2017-11-28T03:24:06.794Z,0
2017-11-28T03:25:19.810Z,0
2017-11-28T03:26:32.373Z,0
2017-11-28T03:27:45.374Z,0
2017-11-28T03:28:58.496Z,0
2017-11-28T03:30:11.570Z,0
2017-11-28T03:31:24.092Z,0
2017-11-28T03:32:36.623Z,0
2017-11-28T03:33:49.168Z,0
2017-11-28T03:35:02.172Z,0
2017-11-28T03:36:14.680Z,0
2017-11-28T03:37:27.198Z,0
2017-11-28T03:38:40.238Z,0
2017-11-28T03:39:53.216Z,0
2017-11-28T03:41:06.194Z,0
2017-11-28T03:42:19.198Z,0
2017-11-28T03:43:32.209Z,0
2017-11-28T03:44:45.231Z,0
2017-11-28T03:45:58.236Z,0
2017-11-28T03:47:11.261Z,0
2017-11-28T03:48:24.253Z,0
2017-11-28T03:49:37.278Z,0
2017-11-28T03:50:49.776Z,0
2017-11-28T03:52:02.783Z,0
2017-11-28T03:53:15.775Z,0
2017-11-28T03:54:28.741Z,0
2017-11-28T03:55:41.751Z,0
2017-11-28T03:56:54.320Z,0
2017-11-28T03:58:06.384Z,0
2017-11-28T03:59:18.902Z,0
2017-11-28T04:00:31.391Z,0
2017-11-28T04:01:43.922Z,0
2017-11-28T04:02:56.968Z,0
2017-11-28T04:04:09.976Z,0
2017-11-28T04:05:22.964Z,0
2017-11-28T04:06:35.952Z,0
2017-11-28T04:07:48.490Z,0
2017-11-28T04:09:01.424Z,0
2017-11-28T04:10:14.414Z,0
2017-11-28T04:11:27.533Z,0
2017-11-28T04:12:40.502Z,0
2017-11-28T04:13:53.043Z,0
2017-11-28T04:15:06.095Z,0
2017-11-28T04:16:19.090Z,0
2017-11-28T04:17:32.087Z,0
2017-11-28T04:18:45.112Z,0
2017-11-28T04:19:57.606Z,0
2017-11-28T04:21:10.636Z,0
2017-11-28T04:22:23.673Z,0
2017-11-28T04:23:36.706Z,0
2017-11-28T04:24:48.741Z,0
2017-11-28T04:26:01.746Z,0
2017-11-28T04:27:14.785Z,0
2017-11-28T04:28:27.835Z,0
2017-11-28T04:29:40.882Z,0
2017-11-28T04:30:53.842Z,0
2017-11-28T04:32:06.340Z,0
2017-11-28T04:33:19.355Z,0
2017-11-28T04:34:32.368Z,0
2017-11-28T04:35:45.390Z,0
2017-11-28T04:36:58.386Z,0
2017-11-28T04:38:11.402Z,0
2017-11-28T04:39:24.378Z,0
2017-11-28T04:40:36.926Z,0
2017-11-28T04:41:49.922Z,0
2017-11-28T04:43:02.972Z,0
2017-11-28T04:44:15.475Z,0
2017-11-28T04:45:28.517Z,0
2017-11-28T04:46:41.517Z,0
2017-11-28T04:47:54.518Z,0
2017-11-28T04:49:07.571Z,0
2017-11-28T04:50:20.619Z,0
2017-11-28T04:51:33.656Z,0
2017-11-28T04:52:46.672Z,0
2017-11-28T04:53:59.672Z,0
2017-11-28T04:55:12.704Z,0
2017-11-28T04:56:25.690Z,0
2017-11-28T04:57:38.712Z,0
2017-11-28T04:58:51.730Z,0
2017-11-28T05:00:04.728Z,0
2017-11-28T05:01:17.275Z,0
2017-11-28T05:02:30.285Z,0
2017-11-28T05:03:42.840Z,0
2017-11-28T05:04:55.340Z,0
2017-11-28T05:06:08.337Z,0
2017-11-28T05:07:21.346Z,0
2017-11-28T05:08:34.327Z,0
2017-11-28T05:09:46.860Z,0
2017-11-28T05:10:59.408Z,0
2017-11-28T05:12:12.411Z,0
2017-11-28T05:13:24.911Z,0
2017-11-28T05:14:37.460Z,0
2017-11-28T05:15:50.014Z,0
2017-11-28T05:17:02.090Z,0
2017-11-28T05:18:15.081Z,0
2017-11-28T05:19:28.100Z,0
2017-11-28T05:20:41.104Z,0
2017-11-28T05:21:54.122Z,0
2017-11-28T05:23:06.679Z,0
2017-11-28T05:24:19.686Z,0
2017-11-28T05:25:32.675Z,0
2017-11-28T05:26:45.657Z,0
2017-11-28T05:27:58.655Z,0
2017-11-28T05:29:11.199Z,0
2017-11-28T05:30:24.163Z,0
2017-11-28T05:31:37.164Z,0
2017-11-28T05:32:50.128Z,0
2017-11-28T05:34:03.298Z,0
2017-11-28T05:35:16.544Z,0
2017-11-28T05:36:29.083Z,0
2017-11-28T05:37:41.633Z,0
2017-11-28T05:38:54.603Z,0
2017-11-28T05:40:07.625Z,0
2017-11-28T05:41:20.639Z,0
2017-11-28T05:42:33.630Z,0
2017-11-28T05:43:46.680Z,0
2017-11-28T05:44:59.687Z,0
2017-11-28T05:46:12.659Z,0
2017-11-28T05:47:25.636Z,0
2017-11-28T05:48:38.591Z,0
2017-11-28T05:49:51.084Z,0
2017-11-28T05:51:03.129Z,0
2017-11-28T05:52:16.119Z,0
2017-11-28T05:53:29.110Z,0
2017-11-28T05:54:41.602Z,0
2017-11-28T05:55:54.162Z,0
2017-11-28T05:57:07.169Z,0
2017-11-28T05:58:20.180Z,0
2017-11-28T05:59:33.200Z,0
2017-11-28T06:00:46.239Z,0
2017-11-28T06:01:59.277Z,0
2017-11-28T06:03:12.257Z,0
2017-11-28T06:04:24.820Z,0
2017-11-28T06:05:37.868Z,0
2017-11-28T06:06:50.883Z,0
2017-11-28T06:08:03.876Z,0
2017-11-28T06:09:16.402Z,0
2017-11-28T06:10:35.665Z,0
2017-11-28T06:11:48.692Z,0
2017-11-28T06:13:01.724Z,0
2017-11-28T06:14:14.810Z,0
2017-11-28T06:15:27.845Z,0
2017-11-28T06:16:40.368Z,0
2017-11-28T06:17:53.368Z,0
2017-11-28T06:19:06.390Z,0
2017-11-28T06:20:19.423Z,0
2017-11-28T06:21:32.638Z,0
2017-11-28T06:22:45.813Z,0
2017-11-28T06:23:58.831Z,0
2017-11-28T06:25:10.419Z,0
2017-11-28T06:26:22.960Z,0
2017-11-28T06:27:35.510Z,0
2017-11-28T06:28:48.544Z,0
2017-11-28T06:30:01.564Z,0
2017-11-28T06:31:14.106Z,0
2017-11-28T06:32:27.075Z,0
2017-11-28T06:33:40.081Z,0
2017-11-28T06:34:52.127Z,0
2017-11-28T06:36:04.696Z,0
2017-11-28T06:37:17.808Z,0
2017-11-28T06:38:30.852Z,0
2017-11-28T06:39:43.353Z,0
2017-11-28T06:40:55.894Z,0
2017-11-28T06:42:08.909Z,0
2017-11-28T06:43:21.932Z,0
2017-11-28T06:44:34.437Z,0
2017-11-28T06:45:47.463Z,0
2017-11-28T06:47:00.017Z,0
2017-11-28T06:48:13.221Z,0
2017-11-28T06:49:26.224Z,0
2017-11-28T06:50:39.207Z,0
2017-11-28T06:51:51.730Z,0
2017-11-28T06:53:04.741Z,0
2017-11-28T06:54:17.283Z,0
2017-11-28T06:55:30.299Z,0
2017-11-28T06:56:42.809Z,0
2017-11-28T06:57:55.579Z,0
2017-11-28T06:59:08.614Z,0
2017-11-28T07:00:21.142Z,0
2017-11-28T07:01:34.166Z,0
2017-11-28T07:02:47.202Z,0
2017-11-28T07:03:59.765Z,0
2017-11-28T07:05:12.760Z,0
2017-11-28T07:06:25.281Z,0
2017-11-28T07:07:38.317Z,0
2017-11-28T07:08:51.328Z,0
2017-11-28T07:10:04.290Z,0
2017-11-28T07:11:17.313Z,0
2017-11-28T07:12:29.360Z,0
2017-11-28T07:13:42.319Z,0
2017-11-28T07:14:55.351Z,0
2017-11-28T07:16:08.338Z,0
2017-11-28T07:17:21.331Z,0
2017-11-28T07:18:33.867Z,0
2017-11-28T07:19:46.425Z,0
2017-11-28T07:20:59.451Z,0
2017-11-28T07:22:12.680Z,0
2017-11-28T07:23:26.134Z,0
2017-11-28T07:24:39.138Z,0
2017-11-28T07:25:52.139Z,0
2017-11-28T07:27:05.174Z,0
2017-11-28T07:28:18.192Z,0
2017-11-28T07:29:31.243Z,0
2017-11-28T07:30:43.806Z,0
2017-11-28T07:31:56.366Z,0
2017-11-28T07:33:09.340Z,0
2017-11-28T07:34:21.845Z,0
2017-11-28T07:35:34.861Z,0
2017-11-28T07:36:47.380Z,0
2017-11-28T07:38:00.410Z,0
2017-11-28T07:39:13.387Z,0
2017-11-28T07:40:26.386Z,0
2017-11-28T07:41:38.408Z,0
2017-11-28T07:42:51.449Z,0
2017-11-28T07:44:04.480Z,0
2017-11-28T07:45:17.022Z,0
2017-11-28T07:46:30.020Z,0
2017-11-28T07:47:42.498Z,4
2017-11-28T07:48:55.026Z,4
2017-11-28T07:50:07.989Z,0
2017-11-28T07:51:21.056Z,4
2017-11-28T07:52:33.632Z,0
2017-11-28T07:53:46.653Z,4
2017-11-28T07:54:59.635Z,4
2017-11-28T07:56:12.667Z,8
2017-11-28T07:57:25.661Z,8
2017-11-28T07:58:37.794Z,12
2017-11-28T07:59:49.894Z,16
2017-11-28T08:01:02.886Z,16
2017-11-28T08:02:16.090Z,24
2017-11-28T08:03:28.618Z,32
2017-11-28T08:04:41.693Z,48
2017-11-28T08:05:54.698Z,60
2017-11-28T08:07:07.681Z,84
2017-11-28T08:08:20.699Z,140
2017-11-28T08:09:33.192Z,188
2017-11-28T08:10:46.187Z,228
2017-11-28T08:11:59.213Z,244
2017-11-28T08:13:12.230Z,268
2017-11-28T08:14:25.187Z,316
2017-11-28T08:15:38.171Z,388
2017-11-28T08:16:50.700Z,404
2017-11-28T08:18:02.760Z,396
2017-11-28T08:19:14.789Z,416
2017-11-28T08:20:27.754Z,428
2017-11-28T08:21:40.782Z,444
2017-11-28T08:22:53.322Z,480
2017-11-28T08:24:06.276Z,532
2017-11-28T08:25:18.811Z,580
2017-11-28T08:26:31.322Z,476
2017-11-28T08:27:44.324Z,412
2017-11-28T08:28:56.849Z,504
2017-11-28T08:30:09.803Z,576
2017-11-28T08:31:22.877Z,564
2017-11-28T08:32:35.906Z,540
2017-11-28T08:33:48.902Z,528
2017-11-28T08:35:01.454Z,576
2017-11-28T08:36:14.486Z,644
2017-11-28T08:37:27.481Z,784
2017-11-28T08:38:40.516Z,784
2017-11-28T08:39:53.558Z,844
2017-11-28T08:41:06.624Z,924
2017-11-28T08:42:19.611Z,1064
2017-11-28T08:43:32.657Z,1288
2017-11-28T08:44:45.745Z,1424
2017-11-28T08:45:58.263Z,1532
2017-11-28T08:47:11.288Z,1648
2017-11-28T08:48:24.264Z,1712
2017-11-28T08:49:37.252Z,1644
2017-11-28T08:50:50.289Z,1504
2017-11-28T08:52:03.323Z,1388
2017-11-28T08:53:15.855Z,1424
2017-11-28T08:54:28.867Z,1468
2017-11-28T08:55:41.856Z,1556
2017-11-28T08:56:53.905Z,1784
2017-11-28T08:58:06.406Z,2148
2017-11-28T08:59:19.410Z,2596
2017-11-28T09:00:32.424Z,3560
2017-11-28T09:01:44.987Z,4544
2017-11-28T09:02:57.997Z,5328
2017-11-28T09:04:11.213Z,6228
2017-11-28T09:05:23.747Z,7388
2017-11-28T09:06:36.736Z,8064
2017-11-28T09:07:49.286Z,8276
2017-11-28T09:09:02.314Z,8152
2017-11-28T09:10:15.025Z,7696
2017-11-28T09:11:28.051Z,7384
2017-11-28T09:12:41.052Z,5796
2017-11-28T09:13:54.029Z,4640
2017-11-28T09:15:05.599Z,4336
2017-11-28T09:16:18.134Z,3824
2017-11-28T09:17:31.120Z,3580
2017-11-28T09:18:44.173Z,2928
2017-11-28T09:19:57.140Z,2764
2017-11-28T09:21:10.200Z,3496
2017-11-28T09:22:23.184Z,4012
2017-11-28T09:23:35.257Z,3372
2017-11-28T09:24:48.254Z,2940
2017-11-28T09:26:01.253Z,2968
2017-11-28T09:27:14.286Z,3168
2017-11-28T09:28:27.283Z,3572
2017-11-28T09:29:39.863Z,4888
2017-11-28T09:30:52.472Z,6992
2017-11-28T09:32:04.063Z,10944
2017-11-28T09:33:16.599Z,10548
2017-11-28T09:34:29.594Z,9156
2017-11-28T09:35:42.556Z,7588
2017-11-28T09:36:55.098Z,8212
2017-11-28T09:38:08.135Z,9600
2017-11-28T09:39:21.117Z,11280
2017-11-28T09:40:33.663Z,10856
2017-11-28T09:41:46.664Z,10248
2017-11-28T09:42:59.660Z,9384
2017-11-28T09:44:12.622Z,9748
2017-11-28T09:45:25.613Z,10576
2017-11-28T09:46:38.621Z,10060
2017-11-28T09:47:51.622Z,9052
2017-11-28T09:49:04.654Z,10708
2017-11-28T09:50:17.689Z,11768
2017-11-28T09:51:30.695Z,13860
2017-11-28T09:52:43.686Z,13012
2017-11-28T09:53:56.711Z,12388
2017-11-28T09:55:09.760Z,12376
2017-11-28T09:56:22.763Z,12788
2017-11-28T09:57:35.758Z,13404
2017-11-28T09:58:48.782Z,13420
2017-11-28T10:00:01.780Z,12948
2017-11-28T10:01:14.759Z,12860
2017-11-28T10:02:27.312Z,13636
2017-11-28T10:03:40.327Z,14580
2017-11-28T10:04:53.316Z,15504
2017-11-28T10:06:05.832Z,12924
2017-11-28T10:07:17.900Z,10196
2017-11-28T10:08:30.370Z,8912
2017-11-28T10:09:42.937Z,7160
2017-11-28T10:10:55.974Z,6704
2017-11-28T10:12:08.923Z,7484
2017-11-28T10:13:21.467Z,8028
2017-11-28T10:14:34.508Z,9504
2017-11-28T10:15:47.016Z,12112
2017-11-28T10:17:00.101Z,11256
2017-11-28T10:18:12.627Z,12200
2017-11-28T10:19:24.708Z,16004
2017-11-28T10:20:37.336Z,21440
2017-11-28T10:21:49.897Z,22304
2017-11-28T10:23:02.922Z,26016
2017-11-28T10:24:16.124Z,23680
2017-11-28T10:25:28.218Z,21568
2017-11-28T10:26:40.765Z,19008
2017-11-28T10:27:53.338Z,14848
2017-11-28T10:29:05.931Z,12268
2017-11-28T10:30:19.019Z,11044
2017-11-28T10:31:31.607Z,11108
2017-11-28T10:32:44.652Z,13980
2017-11-28T10:33:57.717Z,20288
2017-11-28T10:35:10.693Z,21984
2017-11-28T10:36:23.727Z,21536
2017-11-28T10:37:36.255Z,21088
2017-11-28T10:38:48.831Z,24256
2017-11-28T10:40:02.049Z,25312
2017-11-28T10:41:15.085Z,22528
2017-11-28T10:42:27.591Z,26208
2017-11-28T10:43:40.617Z,29312
2017-11-28T10:44:53.155Z,24864
2017-11-28T10:46:06.185Z,24608
2017-11-28T10:47:18.750Z,33600
2017-11-28T10:48:31.271Z,39136
2017-11-28T10:49:43.970Z,49152
2017-11-28T10:50:56.981Z,43008
2017-11-28T10:52:09.036Z,43008
2017-11-28T10:53:21.146Z,45216
2017-11-28T10:54:34.341Z,39552
2017-11-28T10:55:47.551Z,45376
2017-11-28T10:57:00.525Z,39904
2017-11-28T10:58:13.493Z,34720
2017-11-28T10:59:26.519Z,36320
2017-11-28T11:00:39.494Z,34528
2017-11-28T11:01:51.750Z,35104
2017-11-28T11:03:04.789Z,34976
2017-11-28T11:04:17.982Z,35264
2017-11-28T11:05:30.034Z,33600
2017-11-28T11:06:42.552Z,30336
2017-11-28T11:07:55.589Z,25760
2017-11-28T11:09:08.178Z,23808
2017-11-28T11:10:20.659Z,23616
2017-11-28T11:11:32.877Z,24576
2017-11-28T11:12:45.889Z,24928
2017-11-28T11:13:58.985Z,23360
2017-11-28T11:15:11.527Z,23808
2017-11-28T11:16:24.561Z,28384
2017-11-28T11:17:37.228Z,26304
2017-11-28T11:18:49.768Z,24864
2017-11-28T11:20:02.749Z,26720
2017-11-28T11:21:15.769Z,28160
2017-11-28T11:22:28.825Z,25312
2017-11-28T11:23:41.828Z,23520
2017-11-28T11:24:54.854Z,25984
2017-11-28T11:26:07.862Z,32832
2017-11-28T11:27:20.829Z,35648
2017-11-28T11:28:33.836Z,42176
2017-11-28T11:29:45.957Z,50272
2017-11-28T11:30:58.496Z,98240
2017-11-28T11:32:11.557Z,63072
2017-11-28T11:33:24.566Z,42720
2017-11-28T11:34:37.794Z,35296
2017-11-28T11:35:50.885Z,38464
2017-11-28T11:37:03.872Z,33312
2017-11-28T11:38:16.828Z,29120
2017-11-28T11:39:29.840Z,37056
2017-11-28T11:40:42.837Z,36288
2017-11-28T11:41:54.415Z,27232
2017-11-28T11:43:07.479Z,23552
2017-11-28T11:44:20.509Z,26304
2017-11-28T11:45:33.542Z,28704
2017-11-28T11:46:46.243Z,28320
2017-11-28T11:47:59.228Z,26688
2017-11-28T11:49:12.234Z,25824
2017-11-28T11:50:25.201Z,26624
2017-11-28T11:51:38.191Z,23968
2017-11-28T11:52:51.708Z,22208
2017-11-28T11:54:03.772Z,21696
2017-11-28T11:55:16.787Z,20224
2017-11-28T11:56:29.374Z,18816
2017-11-28T11:57:41.905Z,19968
2017-11-28T11:58:54.440Z,21376
2017-11-28T12:00:07.159Z,22464
2017-11-28T12:01:19.721Z,23168
2017-11-28T12:02:32.260Z,24672
2017-11-28T12:03:44.340Z,26592
2017-11-28T12:04:57.360Z,26240
2017-11-28T12:06:10.337Z,25600
2017-11-28T12:07:23.353Z,24416
2017-11-28T12:08:36.403Z,21984
2017-11-28T12:09:48.947Z,17344
2017-11-28T12:11:01.952Z,14944
2017-11-28T12:12:14.494Z,13988
2017-11-28T12:13:27.516Z,14048
2017-11-28T12:14:40.052Z,13668
2017-11-28T12:15:52.103Z,14208
2017-11-28T12:17:04.661Z,16592
2017-11-28T12:18:17.732Z,20864
2017-11-28T12:19:30.707Z,26688
2017-11-28T12:20:43.685Z,31456
2017-11-28T12:21:56.721Z,33088
2017-11-28T12:23:09.720Z,27936
2017-11-28T12:24:21.437Z,23680
2017-11-28T12:25:34.424Z,22336
2017-11-28T12:26:47.016Z,23264
2017-11-28T12:28:00.902Z,26016
2017-11-28T12:29:13.909Z,31392
2017-11-28T12:30:26.883Z,37792
2017-11-28T12:31:39.876Z,43616
2017-11-28T12:32:52.009Z,45568
2017-11-28T12:34:04.592Z,44384
2017-11-28T12:35:17.621Z,40736
2017-11-28T12:36:30.712Z,35584
2017-11-28T12:37:43.721Z,30944
2017-11-28T12:38:56.706Z,26208
2017-11-28T12:40:09.460Z,24384
2017-11-28T12:41:22.454Z,23872
2017-11-28T12:42:35.477Z,25120
2017-11-28T12:43:48.043Z,27392
2017-11-28T12:45:00.604Z,29248
2017-11-28T12:46:13.191Z,29792
2017-11-28T12:47:26.201Z,30144
2017-11-28T12:48:39.284Z,31264
2017-11-28T12:49:51.331Z,33696
2017-11-28T12:51:03.910Z,36416
2017-11-28T12:52:16.913Z,39904
2017-11-28T12:53:29.940Z,44800
2017-11-28T12:54:42.894Z,50528
2017-11-28T12:55:55.437Z,59872
2017-11-28T12:57:08.433Z,78976
2017-11-28T12:58:20.417Z,66208
2017-11-28T12:59:32.958Z,64320
2017-11-28T13:00:46.012Z,73088
2017-11-28T13:01:59.709Z,77760
2017-11-28T13:03:12.249Z,92064
2017-11-28T13:04:25.267Z,72800
2017-11-28T13:05:38.208Z,69312
2017-11-28T13:06:51.218Z,71808
2017-11-28T13:08:04.415Z,69056
2017-11-28T13:09:17.433Z,63328
2017-11-28T13:10:30.503Z,62944
2017-11-28T13:11:43.044Z,60896
2017-11-28T13:12:56.081Z,59840
2017-11-28T13:14:09.092Z,58432
2017-11-28T13:15:22.090Z,55712
2017-11-28T13:16:35.123Z,51648
2017-11-28T13:17:47.653Z,51392
2017-11-28T13:19:00.155Z,54080
2017-11-28T13:20:12.710Z,52608
2017-11-28T13:21:25.771Z,51712
2017-11-28T13:22:38.772Z,46848
2017-11-28T13:23:51.810Z,51840
2017-11-28T13:25:04.352Z,52384
2017-11-28T13:26:17.381Z,54208
2017-11-28T13:27:30.623Z,62496
2017-11-28T13:28:43.664Z,71232
2017-11-28T13:29:56.713Z,58624
2017-11-28T13:31:09.699Z,59072
2017-11-28T13:32:22.248Z,64160
2017-11-28T13:33:34.303Z,64608
2017-11-28T13:34:46.407Z,65024
2017-11-28T13:35:59.203Z,73408
2017-11-28T13:37:12.436Z,71136
2017-11-28T13:38:24.964Z,67392
2017-11-28T13:39:37.580Z,66048
2017-11-28T13:40:50.108Z,61600
2017-11-28T13:42:03.183Z,59968
2017-11-28T13:43:16.200Z,66272
2017-11-28T13:44:28.686Z,61568
2017-11-28T13:45:41.718Z,57824
2017-11-28T13:46:54.730Z,68512
2017-11-28T13:48:07.258Z,60832
2017-11-28T13:49:20.295Z,49952
2017-11-28T13:50:33.274Z,40064
2017-11-28T13:51:45.804Z,33856
2017-11-28T13:52:58.384Z,29888
2017-11-28T13:54:11.391Z,29344
2017-11-28T13:55:24.405Z,31968
2017-11-28T13:56:37.403Z,38304
2017-11-28T13:57:50.381Z,50400
2017-11-28T13:59:03.405Z,57792
2017-11-28T14:00:16.402Z,60608
2017-11-28T14:01:29.443Z,72896
2017-11-28T14:02:41.543Z,142528
2017-11-28T14:03:54.545Z,166080
2017-11-28T14:05:07.584Z,79072
2017-11-28T14:06:20.143Z,67296
2017-11-28T14:07:33.160Z,71392
2017-11-28T14:08:46.189Z,73024
2017-11-28T14:09:58.760Z,53536
2017-11-28T14:11:11.771Z,50720
2017-11-28T14:12:24.827Z,49568
2017-11-28T14:13:37.855Z,40224
2017-11-28T14:14:50.446Z,34880
2017-11-28T14:16:03.421Z,35904
2017-11-28T14:17:15.998Z,39520
2017-11-28T14:18:29.035Z,42368
2017-11-28T14:19:42.058Z,44896
2017-11-28T14:20:55.364Z,44832
2017-11-28T14:22:08.362Z,44608
2017-11-28T14:23:21.371Z,45600
2017-11-28T14:24:33.921Z,47520
2017-11-28T14:25:46.439Z,51200
2017-11-28T14:26:58.953Z,57632
2017-11-28T14:28:11.983Z,64480
2017-11-28T14:29:24.086Z,72032
2017-11-28T14:30:37.281Z,73632
2017-11-28T14:31:48.882Z,84000
2017-11-28T14:33:00.954Z,102336
2017-11-28T14:34:13.546Z,80768
2017-11-28T14:35:26.524Z,79680
2017-11-28T14:36:39.554Z,67872
2017-11-28T14:37:52.651Z,63808
2017-11-28T14:39:05.648Z,60160
2017-11-28T14:40:18.698Z,57376
2017-11-28T14:41:31.976Z,56288
2017-11-28T14:42:45.190Z,55904
2017-11-28T14:43:57.754Z,53536
2017-11-28T14:45:10.321Z,50336
2017-11-28T14:46:23.095Z,45984
2017-11-28T14:47:35.703Z,39840
2017-11-28T14:48:48.714Z,34912
2017-11-28T14:50:01.511Z,31872
2017-11-28T14:51:14.560Z,31104
2017-11-28T14:52:27.573Z,34592
2017-11-28T14:53:40.603Z,40608
2017-11-28T14:54:52.693Z,47520
2017-11-28T14:56:05.293Z,51456
2017-11-28T14:57:18.284Z,49984
2017-11-28T14:58:30.793Z,43616
2017-11-28T14:59:43.314Z,39296
2017-11-28T15:00:55.866Z,40128
2017-11-28T15:02:08.374Z,44960
2017-11-28T15:03:20.938Z,53248
2017-11-28T15:04:33.475Z,65152
2017-11-28T15:05:46.005Z,85184
2017-11-28T15:06:59.071Z,80096
2017-11-28T15:08:12.021Z,84576
2017-11-28T15:09:25.085Z,167104
2017-11-28T15:10:37.687Z,86368
2017-11-28T15:11:50.233Z,56672
2017-11-28T15:13:03.241Z,42240
2017-11-28T15:14:16.313Z,40096
2017-11-28T15:15:28.865Z,43520
2017-11-28T15:16:40.936Z,56064
2017-11-28T15:17:53.935Z,59168
2017-11-28T15:19:06.932Z,61376
2017-11-28T15:20:19.956Z,168384
2017-11-28T15:21:33.004Z,166208
2017-11-28T15:22:45.623Z,144928
2017-11-28T15:23:58.618Z,160256
2017-11-28T15:25:11.164Z,157280
2017-11-28T15:26:24.169Z,164480
2017-11-28T15:27:37.231Z,118112
2017-11-28T15:28:50.235Z,112096
2017-11-28T15:30:03.253Z,134272
2017-11-28T15:31:15.813Z,144192
2017-11-28T15:32:28.826Z,136448
2017-11-28T15:33:41.399Z,135648
2017-11-28T15:34:54.407Z,35904
2017-11-28T15:36:06.461Z,142656
2017-11-28T15:37:18.992Z,152736
2017-11-28T15:38:32.853Z,154016
2017-11-28T15:39:47.029Z,156352
2017-11-28T15:40:59.592Z,157568
2017-11-28T15:42:12.146Z,162816
2017-11-28T15:43:24.203Z,75360
2017-11-28T15:44:37.272Z,50784
2017-11-28T15:45:49.358Z,44192
2017-11-28T15:47:02.411Z,40064
2017-11-28T15:48:14.942Z,39936
2017-11-28T15:49:28.023Z,42528
2017-11-28T15:50:41.057Z,44544
2017-11-28T15:51:54.079Z,46848
2017-11-28T15:53:06.635Z,46496
2017-11-28T15:54:19.171Z,50400
2017-11-28T15:55:32.220Z,64096
2017-11-28T15:56:45.253Z,104192
2017-11-28T15:57:58.278Z,64896
2017-11-28T15:59:11.491Z,52832
2017-11-28T16:00:23.520Z,42432
2017-11-28T16:01:36.063Z,33024
2017-11-28T16:02:48.654Z,32416
2017-11-28T16:04:01.657Z,36672
2017-11-28T16:05:14.183Z,41184
2017-11-28T16:06:27.210Z,40608
2017-11-28T16:07:40.269Z,48032
2017-11-28T16:08:52.828Z,52416
2017-11-28T16:10:05.379Z,57888
2017-11-28T16:11:18.401Z,60704
2017-11-28T16:12:31.405Z,62208
2017-11-28T16:13:44.383Z,61408
2017-11-28T16:14:57.535Z,67744
2017-11-28T16:16:10.556Z,140928
2017-11-28T16:17:23.134Z,128608
2017-11-28T16:18:36.167Z,129184
2017-11-28T16:19:48.221Z,130464
2017-11-28T16:21:00.748Z,131264
2017-11-28T16:22:13.954Z,127040
2017-11-28T16:23:27.021Z,131392
2017-11-28T16:24:40.010Z,128384
2017-11-28T16:25:52.567Z,123072
2017-11-28T16:27:05.615Z,118976
2017-11-28T16:28:17.693Z,120576
2017-11-28T16:29:30.234Z,120256
2017-11-28T16:30:42.838Z,109504
2017-11-28T16:31:55.854Z,134464
2017-11-28T16:33:08.869Z,146144
2017-11-28T16:34:21.953Z,63136
2017-11-28T16:35:34.513Z,34528
2017-11-28T16:36:47.535Z,30944
2017-11-28T16:37:59.613Z,30624
2017-11-28T16:39:12.575Z,31904
2017-11-28T16:40:25.589Z,114848
2017-11-28T16:41:38.127Z,111648
2017-11-28T16:42:50.674Z,120608